Ladysmith, Canada
Current Conditions -  °F | °C
As of 10:00 AM on Thursday 30 Oct 2014 (Local Time) from CYCD Reporting Station
Light Rain Light Rain  
Wind Chill: 50°   Ceiling: 3000
Heat Index: 50°   Visibility: 8mi
Dew Point: 48°   Wind: 7mph
Humidity: 94%   Direction: 210°SSW
Pressure: 29.82"   Gusts: NA
Location:  48.98°N, 123.82°W
Report Text: CYCD 301700Z 21006KT 160V230 8SM -RA BKN030 OVC050 10/09 A2982 RMK SC6SC2 SLP099
Loading
Personal Weather Stations






























Interactive Weather Map
Tropical Storm Tracking
New forecast layout! Learn more

10-Day Weather Forecast

Advertisements
Track Severe Weather on mobile